Portada
METAR-TAF:

METAR-TAF

Aeroports :

Chinandega, Nicaragua

latitud: 12-38N, longitud: 087-08W, altitud: 53 m

Observació

L'informe es va fer fa 1 hora i 20 minuts, a les 12:00 UTC
Vent calma
Temperatura 24°C
Humitat 94%
Pressió 1011 hPa
Visibilitat: 8000 m
Escasses núvols a una alçada de 2400 ft, Cumulonimbus.
Núvols disperses a una alçada de 2500 ft
calitja

METAR: MNCH 081200Z 00000KT 8000 FEW024CB SCT025 24/23 Q1011 CB/S/SW/W HZ

Hora: 07:20 (13:20 UTC)


TAF: manca

Observacions i pronòstics meteorològics de més de 4000 aeroports (METAR i TAF).

Les estacions disponibles són els punts grocs i vermells al mapa.

Posi el ratolí al punt desitjat per veure el nom de l'estació.

Feu clic per veure les observacions i els pronòstics meteorològics.

Per canviar el mapa: feu clic els botons verds amb una creu de color negre per apropar; al botó verd amb un guió per allunyar la imatge; o en les fletxes verdes per a mapes adjacents.


METAR-TAF: